Time;durP1;ratioP1;P1;durP2;ratioP2;P2;SDS_P1;SDS_P2;PMS_P1;PMS_P2;Temp;Humidity;BMP_temperature;BMP_pressure;BME280_temperature;BME280_humidity;BME280_pressure;Samples;Min_cycle;Max_cycle;Signal;HPM_P1;HPM_P2
2022/01/04 00:01:05;;;;;;;14.98;2.00;;;6.70;99.90;;;;;;4936630;29;20031;-96
2022/01/04 00:03:34;;;;;;;10.82;2.03;;;6.70;99.90;;;;;;4935910;29;20035;-96
2022/01/04 00:08:37;;;;;;;16.15;2.42;;;6.70;99.90;;;;;;4924699;29;20027;-96
2022/01/04 00:11:41;;;;;;;16.70;2.30;;;6.80;99.90;;;;;;4936601;29;20059;-96
2022/01/04 00:14:09;;;;;;;20.08;2.90;;;6.80;99.90;;;;;;4937506;29;20047;-95
2022/01/04 00:16:36;;;;;;;13.13;3.10;;;6.80;99.90;;;;;;4937488;29;20043;-95
2022/01/04 00:19:04;;;;;;;12.15;2.55;;;6.80;99.90;;;;;;4940498;29;20129;-95
2022/01/04 00:21:31;;;;;;;20.05;5.22;;;6.80;99.90;;;;;;4938394;29;20032;-95
2022/01/04 00:24:01;;;;;;;25.10;5.63;;;6.90;99.90;;;;;;4953503;29;20104;-94
2022/01/04 00:26:28;;;;;;;15.82;3.92;;;6.90;99.90;;;;;;4937972;29;20019;-95
2022/01/04 00:28:56;;;;;;;17.35;4.13;;;6.90;99.90;;;;;;4935984;29;20083;-95
2022/01/04 00:31:25;;;;;;;16.95;4.05;;;6.90;99.90;;;;;;4922000;29;20032;-96
2022/01/04 00:33:51;;;;;;;18.02;4.72;;;6.90;99.90;;;;;;4951127;29;20035;-95
2022/01/04 00:36:17;;;;;;;14.85;4.78;;;6.90;99.90;;;;;;4936384;29;20532;-96
2022/01/04 00:38:46;;;;;;;15.93;5.00;;;6.90;99.90;;;;;;4935271;29;20055;-94
2022/01/04 00:41:11;;;;;;;18.13;5.22;;;6.90;99.90;;;;;;4935875;29;20032;-95
2022/01/04 00:43:38;;;;;;;15.13;5.45;;;6.90;99.90;;;;;;4935605;29;20035;-96
2022/01/04 00:46:16;;;;;;;13.90;5.22;;;6.90;99.90;;;;;;4935403;29;20087;-95
2022/01/04 00:51:30;;;;;;;15.55;6.13;;;6.90;99.90;;;;;;4953067;29;20056;-95
2022/01/04 00:53:56;;;;;;;22.45;6.78;;;6.90;99.90;;;;;;4925055;29;20027;-94
2022/01/04 00:56:25;;;;;;;18.52;6.60;;;6.90;99.90;;;;;;4944454;28;20028;-95
2022/01/04 00:58:54;;;;;;;11.18;5.72;;;6.90;99.90;;;;;;4942861;29;20091;-95
2022/01/04 01:01:21;;;;;;;15.57;5.68;;;6.80;99.90;;;;;;4906510;29;20142;-96
2022/01/04 01:03:47;;;;;;;4.80;1.60;;;6.80;99.90;;;;;;4933887;29;20031;-94
2022/01/04 01:06:14;;;;;;;3.38;1.15;;;6.80;99.90;;;;;;4930450;29;20027;-94
2022/01/04 01:08:40;;;;;;;0.75;0.60;;;6.60;99.90;;;;;;4931127;29;20032;-94
2022/01/04 01:11:08;;;;;;;2.22;1.08;;;6.30;99.90;;;;;;4930367;29;20035;-94
2022/01/04 01:13:37;;;;;;;3.28;0.90;;;6.10;99.90;;;;;;4933917;29;20038;-95
2022/01/04 01:16:03;;;;;;;0.55;0.30;;;5.90;99.90;;;;;;4913052;29;20143;-95
2022/01/04 01:18:29;;;;;;;0.50;0.40;;;5.70;99.90;;;;;;4929802;29;20024;-95
2022/01/04 01:20:57;;;;;;;0.82;0.60;;;5.50;99.90;;;;;;4928943;29;20106;-96
2022/01/04 01:23:24;;;;;;;0.20;0.20;;;5.30;99.90;;;;;;4929566;29;20056;-94
2022/01/04 01:25:55;;;;;;;0.22;0.10;;;5.10;99.90;;;;;;4930384;29;20070;-96
2022/01/04 01:28:24;;;;;;;0.20;0.20;;;4.90;99.90;;;;;;4930922;29;20032;-95
2022/01/04 01:30:52;;;;;;;0.22;0.22;;;4.80;99.90;;;;;;4929763;29;20123;-95
2022/01/04 01:33:20;;;;;;;0.10;0.10;;;4.60;99.90;;;;;;4933693;29;20031;-95
2022/01/04 01:35:46;;;;;;;0.20;0.20;;;4.60;99.90;;;;;;4932208;29;20052;-96
2022/01/04 01:38:17;;;;;;;0.20;0.20;;;4.50;99.90;;;;;;4932030;29;20044;-95
2022/01/04 01:40:43;;;;;;;0.10;0.10;;;4.30;99.90;;;;;;4926849;29;20032;-93
2022/01/04 01:43:09;;;;;;;0.10;0.10;;;4.20;99.90;;;;;;4921998;29;20027;-93
2022/01/04 01:45:35;;;;;;;0.25;0.25;;;4.20;99.90;;;;;;4928428;29;20034;-93
2022/01/04 01:48:01;;;;;;;0.20;0.20;;;4.10;99.90;;;;;;4926233;29;20086;-94
2022/01/04 01:50:27;;;;;;;2.65;0.30;;;4.10;99.90;;;;;;4924508;29;20024;-95
2022/01/04 01:52:55;;;;;;;0.70;0.30;;;4.00;99.90;;;;;;4920400;29;20032;-94
2022/01/04 01:55:23;;;;;;;0.20;0.20;;;4.00;99.90;;;;;;4920564;29;20148;-93
2022/01/04 01:57:50;;;;;;;1.15;0.30;;;3.90;99.90;;;;;;4922305;29;20055;-94
2022/01/04 02:00:19;;;;;;;0.52;0.30;;;3.90;99.90;;;;;;4919733;29;20039;-93
2022/01/04 02:02:44;;;;;;;0.63;0.32;;;3.80;99.90;;;;;;4919335;29;20062;-92
2022/01/04 02:05:11;;;;;;;3.35;0.50;;;3.80;99.90;;;;;;4919903;29;20032;-93
2022/01/04 02:07:39;;;;;;;0.60;0.50;;;3.70;99.90;;;;;;4920650;29;20071;-93
2022/01/04 02:10:07;;;;;;;2.55;0.40;;;3.60;99.90;;;;;;4919747;29;20031;-93
2022/01/04 02:12:36;;;;;;;0.60;0.50;;;3.50;99.90;;;;;;4919499;29;20450;-93
2022/01/04 02:15:05;;;;;;;1.15;0.30;;;3.40;99.90;;;;;;4919568;29;20063;-94
2022/01/04 02:17:30;;;;;;;0.40;0.40;;;3.30;99.90;;;;;;4919444;29;20031;-92
2022/01/04 02:19:57;;;;;;;0.63;0.47;;;3.20;99.90;;;;;;4919204;29;20028;-92
2022/01/04 02:22:24;;;;;;;0.60;0.40;;;3.30;99.90;;;;;;4919247;29;20028;-92
2022/01/04 02:24:50;;;;;;;0.82;0.63;;;3.20;99.90;;;;;;4919104;29;20032;-93
2022/01/04 02:27:16;;;;;;;0.52;0.50;;;3.20;99.90;;;;;;4919031;29;20032;-92
2022/01/04 02:29:43;;;;;;;0.85;0.60;;;3.20;99.90;;;;;;4919283;29;20024;-92
2022/01/04 02:32:09;;;;;;;0.68;0.50;;;3.20;99.90;;;;;;4919660;29;20028;-94
2022/01/04 02:34:35;;;;;;;0.47;0.38;;;3.10;99.90;;;;;;4922156;29;20377;-93
2022/01/04 02:37:01;;;;;;;0.73;0.60;;;3.10;99.90;;;;;;4919148;29;20047;-92
2022/01/04 02:39:26;;;;;;;0.40;0.40;;;3.10;99.90;;;;;;4919018;29;20047;-95
2022/01/04 02:41:52;;;;;;;0.50;0.40;;;3.10;99.90;;;;;;4936469;29;20089;-92
2022/01/04 02:44:18;;;;;;;0.63;0.55;;;3.10;99.90;;;;;;4919151;29;20042;-95
2022/01/04 02:46:44;;;;;;;0.43;0.43;;;3.10;99.90;;;;;;4920722;29;20590;-91
2022/01/04 02:49:10;;;;;;;0.70;0.50;;;3.10;99.90;;;;;;4920761;29;20024;-93
2022/01/04 02:51:36;;;;;;;0.63;0.45;;;3.10;99.90;;;;;;4921294;29;20066;-94
2022/01/04 02:54:01;;;;;;;0.90;0.60;;;3.10;99.90;;;;;;4926820;29;20019;-93
2022/01/04 02:56:29;;;;;;;1.17;0.55;;;3.10;99.90;;;;;;4931405;29;20241;-95
2022/01/04 02:59:02;;;;;;;1.23;0.70;;;3.10;99.90;;;;;;4938515;29;20059;-95
2022/01/04 03:01:28;;;;;;;1.45;0.80;;;3.10;99.90;;;;;;4939856;29;20036;-93
2022/01/04 03:03:53;;;;;;;1.40;0.88;;;3.10;99.90;;;;;;4944507;29;20015;-94
2022/01/04 03:06:19;;;;;;;1.95;0.60;;;3.10;99.90;;;;;;4945617;29;20099;-94
2022/01/04 03:12:10;;;;;;;0.90;0.60;;;3.10;99.90;;;;;;4937231;29;20039;-94
2022/01/04 03:14:37;;;;;;;0.85;0.70;;;3.00;99.90;;;;;;4925031;29;20027;-94
2022/01/04 03:17:03;;;;;;;1.10;0.70;;;3.00;99.90;;;;;;4925694;29;20063;-94
2022/01/04 03:19:30;;;;;;;0.98;0.60;;;3.00;99.90;;;;;;4927465;29;20036;-95
2022/01/04 03:21:55;;;;;;;0.65;0.60;;;3.00;99.90;;;;;;4925060;29;20036;-95
2022/01/04 03:24:21;;;;;;;0.80;0.52;;;3.00;99.90;;;;;;4922564;29;20024;-95
2022/01/04 03:26:47;;;;;;;0.95;0.60;;;3.00;99.90;;;;;;4921739;29;20082;-92
2022/01/04 03:29:15;;;;;;;1.13;0.60;;;3.00;99.90;;;;;;4929160;29;20478;-93
2022/01/04 03:31:41;;;;;;;0.80;0.70;;;2.90;99.90;;;;;;4933439;29;20028;-94
2022/01/04 03:34:08;;;;;;;1.13;0.70;;;2.90;99.90;;;;;;4940069;29;20016;-94
2022/01/04 03:36:34;;;;;;;1.20;0.70;;;2.90;99.90;;;;;;4927547;29;20036;-93
2022/01/04 03:39:04;;;;;;;0.80;0.60;;;2.90;99.90;;;;;;4923378;29;20081;-94
2022/01/04 03:41:30;;;;;;;0.70;0.50;;;2.90;99.90;;;;;;4920741;29;20393;-91
2022/01/04 03:43:56;;;;;;;0.50;0.40;;;2.90;99.90;;;;;;4919014;29;20371;-93
2022/01/04 03:46:22;;;;;;;0.30;0.30;;;2.90;99.90;;;;;;4903374;29;20123;-93
2022/01/04 03:48:48;;;;;;;1.40;0.30;;;2.90;99.90;;;;;;4903565;29;20135;-94
2022/01/04 03:51:14;;;;;;;0.30;0.30;;;2.90;99.90;;;;;;4918724;29;20518;-93
2022/01/04 03:53:39;;;;;;;0.20;0.20;;;2.90;99.90;;;;;;4918664;29;20024;-93
2022/01/04 03:56:06;;;;;;;0.22;0.20;;;2.90;99.90;;;;;;4918768;29;20044;-92
2022/01/04 03:58:32;;;;;;;0.20;0.20;;;2.80;99.90;;;;;;4926137;29;20453;-91
2022/01/04 04:00:57;;;;;;;0.20;0.20;;;2.80;99.90;;;;;;4940426;29;20031;-91
2022/01/04 04:03:23;;;;;;;0.20;0.20;;;2.80;99.90;;;;;;4942692;29;20038;-95
2022/01/04 04:05:49;;;;;;;0.40;0.30;;;2.80;99.90;;;;;;4947037;29;20035;-95
2022/01/04 04:08:16;;;;;;;0.20;0.20;;;2.70;99.90;;;;;;4940167;29;20108;-94
2022/01/04 04:10:42;;;;;;;1.65;0.40;;;2.70;99.90;;;;;;4940409;29;20035;-93
2022/01/04 04:13:08;;;;;;;0.32;0.22;;;2.60;99.90;;;;;;4940370;29;20031;-93
2022/01/04 04:15:34;;;;;;;2.03;0.30;;;2.60;99.90;;;;;;4943239;29;20031;-95
2022/01/04 04:18:00;;;;;;;0.30;0.25;;;2.60;99.90;;;;;;4940149;29;20031;-92
2022/01/04 04:20:26;;;;;;;0.20;0.20;;;2.50;99.90;;;;;;4940505;29;20028;-95
2022/01/04 04:22:52;;;;;;;0.30;0.30;;;2.50;99.90;;;;;;4940269;29;20086;-92
2022/01/04 04:25:17;;;;;;;0.20;0.20;;;2.50;99.90;;;;;;4939888;29;20480;-92
2022/01/04 04:27:43;;;;;;;0.40;0.40;;;2.50;99.90;;;;;;4940129;29;20366;-93
2022/01/04 04:30:10;;;;;;;0.47;0.47;;;2.40;99.90;;;;;;4940089;29;20485;-92
2022/01/04 04:32:36;;;;;;;0.40;0.28;;;2.40;99.90;;;;;;4940123;29;20038;-94
2022/01/04 04:35:02;;;;;;;0.93;0.57;;;2.40;99.90;;;;;;4939849;29;20027;-92
2022/01/04 04:37:28;;;;;;;0.22;0.22;;;2.40;99.90;;;;;;4939770;29;20074;-92
2022/01/04 04:39:54;;;;;;;2.00;0.47;;;2.30;99.90;;;;;;4940706;29;20138;-93
2022/01/04 04:42:19;;;;;;;2.35;0.50;;;2.30;99.90;;;;;;4940856;29;20035;-94
2022/01/04 04:44:46;;;;;;;0.82;0.50;;;2.30;99.90;;;;;;4940122;29;20556;-92
2022/01/04 04:47:12;;;;;;;0.28;0.28;;;2.20;99.90;;;;;;4940905;29;20028;-94
2022/01/04 04:49:38;;;;;;;2.72;0.40;;;2.20;99.90;;;;;;4940385;29;20139;-94
2022/01/04 04:52:04;;;;;;;1.63;0.50;;;2.20;99.90;;;;;;4941872;29;20493;-93
2022/01/04 04:54:30;;;;;;;2.45;0.65;;;2.10;99.90;;;;;;4940969;29;20095;-93
2022/01/04 04:56:56;;;;;;;1.23;0.43;;;2.10;99.90;;;;;;4944250;29;20062;-93
2022/01/04 04:59:22;;;;;;;2.88;1.15;;;2.10;99.90;;;;;;4949772;29;20035;-94
2022/01/04 05:01:48;;;;;;;1.90;0.80;;;2.10;99.90;;;;;;4949153;29;20042;-94
2022/01/04 05:04:14;;;;;;;3.28;0.73;;;2.10;99.90;;;;;;4942214;29;20023;-94
2022/01/04 05:06:39;;;;;;;1.92;0.52;;;2.00;99.90;;;;;;4941113;29;20035;-95
2022/01/04 05:09:05;;;;;;;1.92;0.55;;;2.00;99.90;;;;;;4941354;29;20027;-95
2022/01/04 05:11:32;;;;;;;6.00;0.68;;;2.00;99.90;;;;;;4940586;29;20023;-94
2022/01/04 05:13:58;;;;;;;3.13;0.93;;;2.10;99.90;;;;;;4941243;28;20567;-95
2022/01/04 05:16:23;;;;;;;4.60;0.60;;;2.10;99.90;;;;;;4940078;29;20540;-93
2022/01/04 05:18:49;;;;;;;2.10;0.60;;;2.00;99.90;;;;;;4940999;29;20031;-94
2022/01/04 05:21:15;;;;;;;3.33;1.13;;;2.00;99.90;;;;;;4940682;29;20086;-94
2022/01/04 05:23:41;;;;;;;4.85;1.00;;;2.00;99.90;;;;;;4940402;29;20042;-93
2022/01/04 05:26:07;;;;;;;2.03;0.60;;;2.00;99.90;;;;;;4940067;29;20444;-93
2022/01/04 05:28:32;;;;;;;2.83;0.70;;;2.00;99.90;;;;;;4939480;29;20030;-94
2022/01/04 05:30:58;;;;;;;3.75;0.60;;;2.10;99.90;;;;;;4939444;29;20093;-93
2022/01/04 05:33:24;;;;;;;2.38;0.47;;;2.10;99.90;;;;;;4939091;29;20367;-93
2022/01/04 05:35:49;;;;;;;2.65;0.70;;;2.00;99.90;;;;;;4940933;29;20046;-94
2022/01/04 05:38:16;;;;;;;7.72;0.68;;;2.10;99.90;;;;;;4940176;29;20061;-94
2022/01/04 05:40:42;;;;;;;4.15;0.60;;;2.10;99.90;;;;;;4940359;29;20122;-94
2022/01/04 05:43:08;;;;;;;2.85;0.63;;;2.10;99.90;;;;;;4942002;28;20015;-94
2022/01/04 05:45:34;;;;;;;2.17;0.70;;;2.10;99.90;;;;;;4955261;29;20033;-92
2022/01/04 05:48:00;;;;;;;5.03;0.70;;;2.10;99.90;;;;;;4957863;28;20018;-94
2022/01/04 05:50:26;;;;;;;6.80;0.70;;;2.10;99.90;;;;;;4948972;29;20029;-93
2022/01/04 05:52:51;;;;;;;4.72;0.65;;;2.20;99.90;;;;;;4948665;29;20035;-93
2022/01/04 05:55:17;;;;;;;5.10;0.60;;;2.10;99.90;;;;;;4942200;29;20045;-93
2022/01/04 05:57:43;;;;;;;2.15;0.45;;;2.10;99.90;;;;;;4943109;29;20031;-95
2022/01/04 06:00:09;;;;;;;2.33;0.75;;;2.10;99.90;;;;;;4934969;29;20043;-94
2022/01/04 06:02:35;;;;;;;3.65;0.68;;;2.10;99.90;;;;;;4940609;29;20448;-93
2022/01/04 06:05:02;;;;;;;4.70;1.20;;;2.10;99.90;;;;;;4943161;29;20023;-94
2022/01/04 06:07:28;;;;;;;2.08;0.73;;;2.10;99.90;;;;;;4946564;29;20031;-94
2022/01/04 06:09:54;;;;;;;6.82;1.33;;;2.20;99.90;;;;;;4954068;29;20027;-93
2022/01/04 06:15:12;;;;;;;2.08;0.77;;;2.10;99.90;;;;;;4883400;29;20372;-94
2022/01/04 06:17:41;;;;;;;5.10;0.70;;;2.20;99.90;;;;;;4880269;29;20041;-93
2022/01/04 06:20:09;;;;;;;2.97;0.90;;;2.20;99.90;;;;;;4880655;29;20034;-94
2022/01/04 06:22:37;;;;;;;3.35;0.50;;;2.20;99.90;;;;;;4884440;29;20032;-94
2022/01/04 06:25:04;;;;;;;7.50;1.02;;;2.20;99.90;;;;;;4881568;29;20587;-93
2022/01/04 06:27:30;;;;;;;1.77;0.50;;;2.20;99.90;;;;;;4883225;29;20048;-94
2022/01/04 06:29:57;;;;;;;5.80;0.80;;;2.20;99.90;;;;;;4884263;29;20032;-94
2022/01/04 06:32:23;;;;;;;2.95;0.90;;;2.20;99.90;;;;;;4883946;29;20044;-93
2022/01/04 06:34:49;;;;;;;5.40;0.45;;;2.20;99.90;;;;;;4872668;29;20097;-94
2022/01/04 06:37:15;;;;;;;2.83;0.65;;;2.20;99.90;;;;;;4866541;29;20518;-94
2022/01/04 06:39:42;;;;;;;6.60;0.65;;;2.20;99.90;;;;;;4866805;29;20045;-93
2022/01/04 06:42:08;;;;;;;6.38;0.52;;;2.20;99.90;;;;;;4867415;29;20036;-93
2022/01/04 06:44:33;;;;;;;5.05;0.30;;;2.10;99.90;;;;;;4866990;29;20511;-92
2022/01/04 06:46:59;;;;;;;4.05;0.50;;;2.10;99.90;;;;;;4866946;29;20025;-93
2022/01/04 06:49:25;;;;;;;2.20;0.50;;;2.10;99.90;;;;;;4867777;29;20029;-94
2022/01/04 06:51:51;;;;;;;3.40;0.63;;;2.00;99.90;;;;;;4898168;29;20126;-93
2022/01/04 06:54:20;;;;;;;2.92;1.08;;;2.00;99.90;;;;;;4943331;29;20052;-94
2022/01/04 06:56:47;;;;;;;10.40;0.95;;;1.90;99.90;;;;;;4944167;29;20036;-94
2022/01/04 06:59:13;;;;;;;5.00;0.75;;;2.00;99.90;;;;;;4944764;29;20023;-94
2022/01/04 07:01:39;;;;;;;2.67;0.52;;;2.00;99.90;;;;;;4952609;29;20098;-92
2022/01/04 07:04:06;;;;;;;3.75;0.52;;;1.90;99.90;;;;;;4952807;29;20019;-95
2022/01/04 07:06:33;;;;;;;3.30;0.80;;;1.90;99.90;;;;;;4946552;29;20034;-94
2022/01/04 07:08:58;;;;;;;3.92;1.08;;;1.90;99.90;;;;;;4943397;29;20027;-94
2022/01/04 07:11:24;;;;;;;4.40;0.38;;;1.90;99.90;;;;;;4944126;29;20119;-95
2022/01/04 07:13:50;;;;;;;7.65;0.70;;;1.90;99.90;;;;;;4943895;29;20020;-94
2022/01/04 07:16:16;;;;;;;10.18;1.35;;;1.90;99.90;;;;;;4944093;29;20043;-94
2022/01/04 07:18:46;;;;;;;2.60;0.43;;;1.80;99.90;;;;;;4943649;29;20090;-93
2022/01/04 07:21:13;;;;;;;1.75;0.70;;;1.80;99.90;;;;;;4943508;29;20425;-95
2022/01/04 07:23:39;;;;;;;3.03;0.57;;;1.80;99.90;;;;;;4943729;29;20074;-93
2022/01/04 07:26:05;;;;;;;5.93;0.73;;;1.80;99.90;;;;;;4944030;29;20117;-95
2022/01/04 07:28:31;;;;;;;3.97;0.40;;;1.80;99.90;;;;;;4943878;29;20050;-95
2022/01/04 07:30:57;;;;;;;7.38;0.73;;;1.80;99.90;;;;;;4943583;29;20024;-94
2022/01/04 07:33:23;;;;;;;1.90;0.40;;;1.80;99.90;;;;;;4944029;29;20035;-95
2022/01/04 07:35:49;;;;;;;2.60;0.43;;;1.70;99.90;;;;;;4944330;29;20402;-93
2022/01/04 07:38:15;;;;;;;5.70;1.10;;;1.70;99.90;;;;;;4946784;29;20136;-94
2022/01/04 07:40:42;;;;;;;3.90;0.60;;;1.80;99.90;;;;;;4945186;29;20038;-94
2022/01/04 07:43:08;;;;;;;3.95;0.55;;;1.70;99.90;;;;;;4943354;28;20028;-93
2022/01/04 07:45:35;;;;;;;1.13;0.47;;;1.70;99.90;;;;;;4943243;29;20027;-94
2022/01/04 07:48:01;;;;;;;4.03;0.50;;;1.80;99.90;;;;;;4943317;29;20508;-94
2022/01/04 07:50:27;;;;;;;3.53;0.52;;;1.80;99.90;;;;;;4943128;29;20038;-95
2022/01/04 07:52:53;;;;;;;2.08;0.52;;;1.80;99.90;;;;;;4943133;29;20031;-93
2022/01/04 07:55:19;;;;;;;7.50;1.02;;;1.90;99.90;;;;;;4943096;29;20035;-95
2022/01/04 07:57:45;;;;;;;4.22;0.65;;;1.90;99.90;;;;;;4943581;29;20027;-93
2022/01/04 08:00:14;;;;;;;5.65;1.25;;;1.90;99.90;;;;;;4939156;29;20027;-94
2022/01/04 08:02:40;;;;;;;8.20;0.77;;;1.90;99.90;;;;;;4944190;29;20034;-94
2022/01/04 08:05:10;;;;;;;4.25;0.68;;;1.90;99.90;;;;;;4943955;29;20035;-95
2022/01/04 08:07:36;;;;;;;4.82;0.80;;;1.90;99.90;;;;;;4944365;29;20023;-95
2022/01/04 08:10:06;;;;;;;4.03;1.08;;;1.90;99.90;;;;;;4944217;29;20033;-95
2022/01/04 08:12:32;;;;;;;7.43;0.90;;;1.90;99.90;;;;;;4941897;29;20065;-95
2022/01/04 08:14:58;;;;;;;6.50;0.73;;;2.00;99.90;;;;;;4941813;29;20283;-94
2022/01/04 08:17:23;;;;;;;3.38;0.55;;;1.90;99.90;;;;;;4942271;29;20023;-95
2022/01/04 08:19:52;;;;;;;8.40;1.00;;;1.80;99.90;;;;;;4942946;29;20050;-94
2022/01/04 08:22:18;;;;;;;6.57;2.03;;;1.80;99.90;;;;;;4943562;29;20035;-94
2022/01/04 08:24:47;;;;;;;3.08;1.00;;;1.70;99.90;;;;;;4944352;29;20413;-94
2022/01/04 08:27:12;;;;;;;4.00;0.60;;;1.70;99.90;;;;;;4943293;29;20028;-93
2022/01/04 08:29:38;;;;;;;4.57;0.55;;;1.70;99.90;;;;;;4942332;29;20094;-94
2022/01/04 08:32:04;;;;;;;7.85;0.80;;;1.70;99.90;;;;;;4942602;29;20039;-94
2022/01/04 08:34:30;;;;;;;1.48;0.70;;;1.60;99.90;;;;;;4942182;29;20409;-93
2022/01/04 08:36:56;;;;;;;1.38;0.52;;;1.60;99.90;;;;;;4940933;29;20070;-92
2022/01/04 08:39:26;;;;;;;6.10;0.90;;;1.60;99.90;;;;;;4941457;29;20043;-94
2022/01/04 08:41:54;;;;;;;3.63;0.90;;;1.60;99.90;;;;;;4947901;29;20054;-94
2022/01/04 08:44:24;;;;;;;5.47;0.80;;;1.50;99.90;;;;;;4955112;29;20023;-94
2022/01/04 08:46:52;;;;;;;3.85;0.68;;;1.50;99.90;;;;;;4958232;29;20105;-94
2022/01/04 08:49:18;;;;;;;4.03;0.88;;;1.40;99.90;;;;;;4961426;29;20042;-93
2022/01/04 08:51:44;;;;;;;4.28;1.00;;;1.30;99.90;;;;;;4948837;29;20034;-92
2022/01/04 08:54:13;;;;;;;3.53;0.85;;;1.30;99.90;;;;;;4943619;29;20024;-92
2022/01/04 08:56:43;;;;;;;5.15;1.20;;;1.30;99.90;;;;;;4940952;29;20042;-93
2022/01/04 08:59:10;;;;;;;5.95;0.80;;;1.30;99.90;;;;;;4940374;29;20094;-93
2022/01/04 09:01:37;;;;;;;8.10;0.88;;;1.30;99.90;;;;;;4940770;29;20027;-93
2022/01/04 09:04:06;;;;;;;3.85;0.80;;;1.20;99.90;;;;;;4944762;29;20082;-92
2022/01/04 09:06:32;;;;;;;2.78;1.20;;;1.20;99.90;;;;;;4951795;29;20031;-94
2022/01/04 09:08:58;;;;;;;6.88;0.90;;;1.20;99.90;;;;;;4948580;29;20051;-93
2022/01/04 09:11:24;;;;;;;3.30;0.70;;;1.10;99.90;;;;;;4942340;29;20038;-92
2022/01/04 09:13:54;;;;;;;4.03;0.85;;;1.10;99.90;;;;;;4958100;29;20106;-93
2022/01/04 09:19:04;;;;;;;3.15;0.95;;;1.00;99.90;;;;;;4966308;29;20071;-93
2022/01/04 09:21:33;;;;;;;6.20;1.23;;;1.00;99.90;;;;;;4947857;29;20024;-93
2022/01/04 09:24:00;;;;;;;10.40;0.90;;;1.00;99.90;;;;;;4940844;29;20123;-93
2022/01/04 09:26:27;;;;;;;9.05;2.22;;;1.00;99.90;;;;;;4940554;29;20125;-94
2022/01/04 09:28:54;;;;;;;7.90;0.90;;;1.00;99.90;;;;;;4939739;29;20027;-93
2022/01/04 09:31:25;;;;;;;4.38;0.85;;;1.00;99.90;;;;;;4939168;29;20474;-93
2022/01/04 09:33:52;;;;;;;7.75;0.70;;;1.00;99.90;;;;;;4941199;29;20455;-93
2022/01/04 09:36:18;;;;;;;4.22;0.65;;;1.10;99.90;;;;;;4940626;29;20047;-93
2022/01/04 09:38:44;;;;;;;3.15;0.80;;;1.20;99.90;;;;;;4938954;29;20043;-93
2022/01/04 09:41:10;;;;;;;5.35;0.80;;;1.30;99.90;;;;;;4939311;29;20031;-94
2022/01/04 09:43:39;;;;;;;3.42;1.45;;;1.40;99.90;;;;;;4939665;29;20050;-93
2022/01/04 09:46:04;;;;;;;7.35;2.58;;;1.50;99.90;;;;;;4940224;29;20033;-94
2022/01/04 09:48:33;;;;;;;4.80;0.90;;;1.60;99.90;;;;;;4942617;29;20115;-93
2022/01/04 09:51:00;;;;;;;5.50;1.30;;;1.60;99.90;;;;;;4946854;29;20050;-93
2022/01/04 09:53:26;;;;;;;7.15;1.33;;;1.70;99.90;;;;;;4957902;29;20031;-94
2022/01/04 09:55:57;;;;;;;9.80;2.35;;;1.80;99.90;;;;;;4958670;29;20094;-93
2022/01/04 09:58:27;;;;;;;7.78;2.33;;;1.90;99.90;;;;;;4960804;29;20023;-94
2022/01/04 10:00:53;;;;;;;6.07;1.98;;;2.10;99.90;;;;;;4955771;29;20024;-93
2022/01/04 10:03:29;;;;;;;6.97;1.50;;;2.30;99.90;;;;;;4952322;29;20031;-92
2022/01/04 10:06:09;;;;;;;5.63;0.98;;;2.70;99.90;;;;;;4944430;29;20023;-92
2022/01/04 10:08:48;;;;;;;10.23;1.38;;;3.00;99.90;;;;;;4942360;29;20031;-95
2022/01/04 10:11:14;;;;;;;4.90;1.00;;;3.40;99.90;;;;;;4941269;29;20127;-93
2022/01/04 10:13:39;;;;;;;1.70;0.60;;;3.70;99.90;;;;;;4941388;29;20043;-94
2022/01/04 10:16:15;;;;;;;5.82;1.02;;;4.00;99.90;;;;;;4939886;29;20126;-92
2022/01/04 10:18:47;;;;;;;3.13;0.80;;;4.20;99.90;;;;;;4940386;29;20023;-95
2022/01/04 10:21:15;;;;;;;3.35;0.98;;;4.30;99.90;;;;;;4940581;29;20170;-95
2022/01/04 10:23:52;;;;;;;7.00;1.05;;;4.50;99.90;;;;;;4940204;29;20030;-95
2022/01/04 10:26:30;;;;;;;9.50;1.33;;;4.70;99.90;;;;;;4939847;29;20097;-95
2022/01/04 10:28:57;;;;;;;6.30;0.95;;;5.00;99.90;;;;;;4939988;29;20059;-93
2022/01/04 10:31:23;;;;;;;5.47;0.95;;;5.20;99.90;;;;;;4940893;29;20031;-94
2022/01/04 10:33:55;;;;;;;5.93;0.82;;;5.40;99.90;;;;;;4940253;29;20111;-91
2022/01/04 10:36:21;;;;;;;2.45;0.68;;;5.70;99.90;;;;;;4939856;29;20035;-92
2022/01/04 10:38:48;;;;;;;5.45;1.02;;;5.90;99.90;;;;;;4940389;29;20098;-95
2022/01/04 10:41:20;;;;;;;7.28;1.00;;;6.10;99.90;;;;;;4940191;29;20031;-94
2022/01/04 10:43:48;;;;;;;7.13;1.50;;;6.30;99.90;;;;;;4940409;29;20031;-94
2022/01/04 10:46:29;;;;;;;4.75;0.90;;;6.50;99.90;;;;;;4940640;29;20027;-94
2022/01/04 10:48:55;;;;;;;4.90;1.30;;;6.70;99.90;;;;;;4940647;29;20042;-94
2022/01/04 10:51:22;;;;;;;5.22;1.00;;;7.00;98.60;;;;;;4940842;29;20106;-94
2022/01/04 10:54:06;;;;;;;2.28;0.80;;;7.10;97.90;;;;;;4940763;29;20028;-93
2022/01/04 10:56:38;;;;;;;6.05;0.98;;;7.40;97.10;;;;;;4940531;29;20093;-93
2022/01/04 10:59:09;;;;;;;1.90;0.88;;;7.60;96.00;;;;;;4940085;29;20112;-94
2022/01/04 11:01:41;;;;;;;3.97;1.00;;;7.80;95.10;;;;;;4941195;29;20031;-95
2022/01/04 11:04:13;;;;;;;4.57;1.45;;;8.00;93.80;;;;;;4950546;29;20034;-94
2022/01/04 11:06:39;;;;;;;6.65;1.23;;;8.00;92.60;;;;;;4950253;29;20027;-95
2022/01/04 11:09:08;;;;;;;5.90;1.33;;;8.00;91.80;;;;;;4946129;29;20030;-95
2022/01/04 11:11:34;;;;;;;3.28;1.00;;;8.10;91.10;;;;;;4950258;29;20024;-95
2022/01/04 11:14:01;;;;;;;11.82;1.13;;;8.20;90.80;;;;;;4949455;29;20023;-95
2022/01/04 11:16:28;;;;;;;3.15;0.90;;;8.40;90.30;;;;;;4944420;29;20058;-94
2022/01/04 11:18:57;;;;;;;5.10;0.90;;;8.50;88.80;;;;;;4944118;29;20078;-94
2022/01/04 11:21:28;;;;;;;4.72;1.15;;;8.50;87.30;;;;;;4943458;29;20024;-94
2022/01/04 11:23:55;;;;;;;2.20;1.17;;;8.70;87.00;;;;;;4948136;29;20035;-94
2022/01/04 11:26:22;;;;;;;5.07;1.02;;;8.90;86.30;;;;;;4951058;29;20049;-93
2022/01/04 11:28:51;;;;;;;9.40;1.38;;;9.10;85.40;;;;;;4958918;29;20027;-94
2022/01/04 11:31:29;;;;;;;4.75;0.90;;;9.30;84.80;;;;;;4957611;29;20058;-93
2022/01/04 11:34:06;;;;;;;3.70;1.00;;;9.50;83.70;;;;;;4945387;29;20031;-94
2022/01/04 11:36:58;;;;;;;2.75;1.10;;;9.70;82.50;;;;;;4944087;29;20160;-95
2022/01/04 11:39:32;;;;;;;4.18;1.15;;;9.80;80.30;;;;;;4940404;29;20047;-95
2022/01/04 11:42:02;;;;;;;4.68;1.17;;;9.80;79.80;;;;;;4945068;29;20058;-96
2022/01/04 11:44:31;;;;;;;5.25;1.65;;;9.80;79.00;;;;;;4944489;29;20023;-95
2022/01/04 11:47:18;;;;;;;4.20;1.08;;;9.70;78.70;;;;;;4944202;29;20027;-94
2022/01/04 11:50:16;;;;;;;3.55;1.20;;;9.80;78.90;;;;;;4942635;29;20101;-94
2022/01/04 11:52:43;;;;;;;7.32;1.25;;;9.90;78.00;;;;;;4945113;29;20019;-94
2022/01/04 11:55:21;;;;;;;3.72;1.17;;;10.00;77.60;;;;;;4942387;29;20215;-93
2022/01/04 11:57:51;;;;;;;4.95;1.17;;;10.10;76.30;;;;;;4943369;29;20050;-95
2022/01/04 12:00:27;;;;;;;3.95;1.40;;;10.00;75.80;;;;;;4942602;29;20020;-93
2022/01/04 12:03:07;;;;;;;6.63;1.48;;;10.10;75.40;;;;;;4937217;29;20058;-95
2022/01/04 12:05:33;;;;;;;7.75;2.25;;;10.30;75.60;;;;;;4941444;29;20171;-93
2022/01/04 12:08:00;;;;;;;5.18;1.50;;;10.40;75.10;;;;;;4941457;29;20020;-96
2022/01/04 12:10:26;;;;;;;9.90;1.70;;;10.60;74.70;;;;;;4940944;29;20023;-95
2022/01/04 12:12:59;;;;;;;4.65;1.63;;;11.00;74.50;;;;;;4941142;29;20019;-95
2022/01/04 12:15:43;;;;;;;8.40;1.25;;;11.30;73.50;;;;;;4940899;29;20055;-95
2022/01/04 12:18:22;;;;;;;4.28;1.55;;;11.40;72.50;;;;;;4940644;29;20127;-94
2022/01/04 12:20:59;;;;;;;6.65;2.03;;;11.40;72.10;;;;;;4940514;29;20031;-95
2022/01/04 12:23:29;;;;;;;9.63;1.48;;;11.50;71.70;;;;;;4940748;28;20058;-95
2022/01/04 12:28:34;;;;;;;6.63;1.58;;;11.80;70.80;;;;;;4958301;23;20059;-93
2022/01/04 12:31:18;;;;;;;8.25;1.60;;;11.80;70.60;;;;;;4940296;29;20027;-95
2022/01/04 12:33:56;;;;;;;8.75;1.98;;;11.30;68.90;;;;;;4940104;29;20130;-95
2022/01/04 12:36:29;;;;;;;5.60;1.58;;;11.00;70.10;;;;;;4940292;29;20054;-93
2022/01/04 12:39:00;;;;;;;11.00;1.70;;;10.90;70.60;;;;;;4940309;29;20123;-94
2022/01/04 12:41:26;;;;;;;;;;;10.90;71.10;;;;;;4940869;29;20027;-94
2022/01/04 12:43:53;;;;;;;7.45;2.20;;;11.20;71.10;;;;;;4947166;29;19929;-94
2022/01/04 12:46:27;;;;;;;8.32;1.90;;;11.50;70.60;;;;;;4954842;29;20078;-94
2022/01/04 12:48:59;;;;;;;9.30;2.80;;;11.60;69.70;;;;;;4953161;29;20485;-95
2022/01/04 12:51:34;;;;;;;7.80;1.45;;;11.60;69.70;;;;;;4940565;29;20035;-94
2022/01/04 12:54:08;;;;;;;9.60;1.77;;;11.40;69.70;;;;;;4940996;29;20042;-94
2022/01/04 12:57:11;;;;;;;5.28;1.25;;;11.20;69.70;;;;;;4940201;29;20071;-93
2022/01/04 12:59:37;;;;;;;5.53;1.45;;;11.00;69.70;;;;;;4939718;29;20011;-94
2022/01/04 13:02:20;;;;;;;5.00;1.25;;;10.90;69.30;;;;;;4940291;29;20062;-93
2022/01/04 13:04:59;;;;;;;5.47;1.52;;;11.00;69.50;;;;;;4940092;29;20023;-94
2022/01/04 13:07:34;;;;;;;8.88;1.50;;;11.30;69.20;;;;;;4939576;29;20027;-94
2022/01/04 13:10:15;;;;;;;6.32;1.65;;;11.60;68.80;;;;;;4939672;29;20045;-95
2022/01/04 13:12:46;;;;;;;7.15;1.60;;;12.00;68.30;;;;;;4940868;29;20020;-94
2022/01/04 13:15:24;;;;;;;9.48;1.77;;;12.30;66.90;;;;;;4942616;29;20032;-94
2022/01/04 13:17:53;;;;;;;8.25;2.35;;;12.40;66.30;;;;;;4939260;29;20035;-94